createdAt,value
2019-02-17T05:00:40.113Z,0.00
2019-02-17T05:01:36.464Z,0.00
2019-02-17T05:03:09.237Z,0.00
2019-02-17T05:04:09.442Z,0.00
2019-02-17T05:05:43.241Z,0.00
2019-02-17T05:06:43.514Z,0.00
2019-02-17T05:08:17.345Z,0.00
2019-02-17T05:09:17.582Z,0.00
2019-02-17T05:10:51.386Z,0.00
2019-02-17T05:11:51.636Z,0.00
2019-02-17T05:13:26.397Z,0.00
2019-02-17T05:14:26.591Z,0.00
2019-02-17T05:16:00.349Z,0.00
2019-02-17T05:17:00.548Z,0.00
2019-02-17T05:18:34.351Z,0.00
2019-02-17T05:19:34.569Z,0.00
2019-02-17T05:21:08.477Z,0.00
2019-02-17T05:22:08.710Z,0.00
2019-02-17T05:23:42.548Z,0.00
2019-02-17T05:24:42.730Z,0.00
2019-02-17T05:26:16.624Z,0.00
2019-02-17T05:27:16.835Z,0.00
2019-02-17T05:28:50.122Z,0.00
2019-02-17T05:29:50.334Z,0.00
2019-02-17T05:31:24.139Z,0.00
2019-02-17T05:32:24.336Z,0.00
2019-02-17T05:33:58.664Z,0.00
2019-02-17T05:34:59.120Z,0.00
2019-02-17T05:36:32.654Z,0.00
2019-02-17T05:37:32.708Z,0.00
2019-02-17T05:39:06.144Z,0.00
2019-02-17T05:40:06.369Z,0.00
2019-02-17T05:41:39.765Z,0.00
2019-02-17T05:42:39.977Z,0.00
2019-02-17T05:44:13.864Z,0.00
2019-02-17T05:45:14.069Z,0.00
2019-02-17T05:46:47.419Z,0.00
2019-02-17T05:47:47.701Z,0.00
2019-02-17T05:49:21.379Z,0.00
2019-02-17T05:50:21.583Z,0.00
2019-02-17T05:51:56.475Z,0.00
2019-02-17T05:52:56.704Z,0.00
2019-02-17T05:54:30.519Z,0.00
2019-02-17T05:55:30.713Z,0.00
2019-02-17T05:57:04.064Z,0.00
2019-02-17T05:58:04.292Z,0.00
2019-02-17T05:59:38.110Z,0.00
2019-02-17T06:00:38.333Z,0.00
2019-02-17T06:02:12.201Z,0.00
2019-02-17T06:03:12.396Z,0.00
2019-02-17T06:04:45.697Z,0.00
2019-02-17T06:05:45.963Z,0.00
2019-02-17T06:07:19.133Z,0.00
2019-02-17T06:08:19.332Z,0.00
2019-02-17T06:09:52.605Z,0.00
2019-02-17T06:10:52.834Z,0.00
2019-02-17T06:12:27.135Z,0.00
2019-02-17T06:13:27.382Z,0.00
2019-02-17T06:15:00.532Z,0.00
2019-02-17T06:16:00.736Z,5.62
2019-02-17T06:17:34.030Z,5.62
2019-02-17T06:18:34.224Z,5.62
2019-02-17T06:20:07.490Z,5.62
2019-02-17T06:21:07.727Z,5.62
2019-02-17T06:22:40.998Z,11.25
2019-02-17T06:23:41.216Z,11.25
2019-02-17T06:25:15.504Z,11.25
2019-02-17T06:26:15.708Z,11.25
2019-02-17T06:27:48.999Z,16.88
2019-02-17T06:28:49.351Z,16.88
2019-02-17T06:30:23.167Z,16.88
2019-02-17T06:31:24.501Z,16.88
2019-02-17T06:32:57.204Z,22.50
2019-02-17T06:33:57.349Z,22.50
2019-02-17T06:35:31.207Z,28.12
2019-02-17T06:36:31.329Z,28.12
2019-02-17T06:38:05.126Z,33.75
2019-02-17T06:39:05.317Z,33.75
2019-02-17T06:40:39.099Z,39.38
2019-02-17T06:41:39.302Z,39.38
2019-02-17T06:43:13.077Z,45.00
2019-02-17T06:44:13.304Z,50.62
2019-02-17T06:45:47.056Z,50.62
2019-02-17T06:46:47.278Z,56.25
2019-02-17T06:48:20.556Z,61.88
2019-02-17T06:49:20.778Z,67.50
2019-02-17T06:50:55.186Z,67.50
2019-02-17T06:51:55.266Z,73.12
2019-02-17T06:53:28.588Z,78.75
2019-02-17T06:54:28.778Z,78.75
2019-02-17T06:56:02.054Z,84.38
2019-02-17T06:57:02.131Z,84.38
2019-02-17T06:58:41.944Z,90.00
2019-02-17T06:59:39.668Z,95.62
2019-02-17T07:01:13.003Z,95.62
2019-02-17T07:02:13.074Z,95.62
2019-02-17T07:03:48.211Z,101.25
2019-02-17T07:04:48.176Z,106.88
2019-02-17T07:06:21.416Z,112.50
2019-02-17T07:07:22.189Z,118.12
2019-02-17T07:08:55.703Z,118.12
2019-02-17T07:09:55.800Z,123.75
2019-02-17T07:11:29.564Z,123.75
2019-02-17T07:12:30.227Z,123.75
2019-02-17T07:14:04.863Z,129.38
2019-02-17T07:15:04.967Z,129.38
2019-02-17T07:16:40.171Z,135.00
2019-02-17T07:17:40.497Z,135.00
2019-02-17T07:19:16.281Z,140.62
2019-02-17T07:20:16.539Z,146.25
2019-02-17T07:21:52.312Z,157.50
2019-02-17T07:22:52.639Z,163.12
2019-02-17T07:24:28.340Z,168.75
2019-02-17T07:25:30.421Z,168.75
2019-02-17T07:27:03.348Z,174.38
2019-02-17T07:28:03.553Z,180.00
2019-02-17T07:29:39.069Z,180.00
2019-02-17T07:30:38.431Z,185.62
2019-02-17T07:32:13.254Z,213.75
2019-02-17T07:33:13.631Z,230.62
2019-02-17T07:34:48.164Z,253.12
2019-02-17T07:35:48.275Z,270.00
2019-02-17T07:37:32.737Z,281.25
2019-02-17T07:38:24.284Z,286.88
2019-02-17T07:39:57.633Z,303.75
2019-02-17T07:40:57.823Z,309.38
2019-02-17T07:42:31.149Z,320.62
2019-02-17T07:43:31.313Z,331.88
2019-02-17T07:45:05.530Z,360.00
2019-02-17T07:46:05.745Z,393.75
2019-02-17T07:47:39.153Z,421.88
2019-02-17T07:48:39.265Z,427.50
2019-02-17T07:50:13.299Z,444.38
2019-02-17T07:51:13.323Z,438.75
2019-02-17T07:52:47.158Z,450.00
2019-02-17T07:53:48.339Z,478.12
2019-02-17T07:57:56.932Z,517.50
2019-02-17T07:58:59.441Z,528.75
2019-02-17T08:00:31.309Z,545.62
2019-02-17T08:01:44.462Z,551.25
2019-02-17T08:03:09.457Z,545.62
2019-02-17T08:04:10.369Z,545.62
2019-02-17T08:05:43.201Z,551.25
2019-02-17T08:06:43.953Z,556.88
2019-02-17T08:08:18.111Z,562.50
2019-02-17T08:09:18.329Z,556.88
2019-02-17T08:10:52.122Z,562.50
2019-02-17T08:11:52.229Z,551.25
2019-02-17T08:13:25.446Z,540.00
2019-02-17T08:14:25.525Z,528.75
2019-02-17T08:18:32.430Z,472.50
2019-02-17T08:19:32.680Z,478.12
2019-02-17T08:21:05.849Z,489.38
2019-02-17T08:22:07.105Z,489.38
2019-02-17T08:23:39.848Z,495.00
2019-02-17T08:24:39.959Z,495.00
2019-02-17T08:26:13.725Z,478.12
2019-02-17T08:27:13.827Z,466.88
2019-02-17T08:28:47.647Z,444.38
2019-02-17T08:29:47.383Z,433.12
2019-02-17T08:33:55.266Z,405.00
2019-02-17T08:34:55.423Z,410.62
2019-02-17T10:10:20.550Z,1198.12
2019-02-17T10:11:20.231Z,1203.75
2019-02-17T10:12:53.456Z,1237.50
2019-02-17T10:13:53.741Z,1254.38
2019-02-17T10:15:28.165Z,1254.38
2019-02-17T10:16:28.614Z,1260.00
2019-02-17T10:18:00.859Z,1276.88
2019-02-17T10:19:01.072Z,1293.75
2019-02-17T10:20:34.387Z,1316.25
2019-02-17T10:21:35.396Z,1333.12
2019-02-17T10:23:08.883Z,1355.62
2019-02-17T10:24:09.050Z,1366.88
2019-02-17T10:25:42.047Z,1344.38
2019-02-17T10:26:42.200Z,1366.88
2019-02-17T10:28:16.435Z,1344.38
2019-02-17T10:29:16.661Z,1333.12
2019-02-17T10:30:49.857Z,1355.62
2019-02-17T10:31:49.971Z,1383.75
2019-02-17T10:33:23.865Z,1350.00
2019-02-17T10:34:23.972Z,1333.12
2019-02-17T10:35:58.021Z,1316.25
2019-02-17T10:36:57.544Z,1288.12
2019-02-17T10:38:32.396Z,1248.75
2019-02-17T10:39:32.377Z,1243.12
2019-02-17T10:41:06.684Z,1226.25
2019-02-17T10:42:06.789Z,1215.00
2019-02-17T10:43:41.109Z,1226.25
2019-02-17T10:44:41.244Z,1220.62
2019-02-17T10:46:15.469Z,1170.00
2019-02-17T10:47:15.587Z,1141.88
2019-02-17T10:48:48.929Z,1192.50
2019-02-17T10:49:49.146Z,1254.38
2019-02-17T10:51:22.443Z,1321.88
2019-02-17T10:52:22.931Z,1310.62
2019-02-17T10:53:56.251Z,1389.38
2019-02-17T10:54:56.387Z,1406.25
2019-02-17T10:56:29.730Z,1333.12
2019-02-17T10:57:29.614Z,1434.38
2019-02-17T10:59:03.963Z,1411.88
2019-02-17T11:30:31.384Z,1282.50
2019-02-17T11:31:32.615Z,1282.50
2019-02-17T11:33:05.023Z,1260.00
2019-02-17T11:34:06.425Z,1243.12
2019-02-17T11:35:39.982Z,1209.38
2019-02-17T11:36:40.226Z,1181.25
2019-02-17T11:38:16.929Z,1243.12
2019-02-17T11:39:17.033Z,1248.75
2019-02-17T11:40:53.781Z,1406.25
2019-02-17T11:41:53.902Z,1653.75
2019-02-17T11:43:27.668Z,1580.62
2019-02-17T11:44:27.768Z,1395.00
2019-02-17T11:46:02.538Z,1423.12
2019-02-17T11:47:02.810Z,1389.38
2019-02-17T11:48:37.694Z,1350.00
2019-02-17T11:49:38.277Z,1344.38
2019-02-17T11:51:12.882Z,1310.62
2019-02-17T11:52:13.195Z,1400.62
2019-02-17T13:06:18.517Z,5197.50
2019-02-17T13:07:19.814Z,5523.75
2019-02-17T13:08:52.045Z,5473.12
2019-02-17T13:09:52.286Z,5394.38
2019-02-17T13:11:25.581Z,5450.62
2019-02-17T13:12:25.862Z,5540.62
2019-02-17T13:14:00.725Z,2002.50
2019-02-17T13:15:00.959Z,517.50
2019-02-17T13:16:34.269Z,2064.38
2019-02-17T13:17:34.467Z,528.75
2019-02-17T13:19:09.747Z,2019.38
2019-02-17T13:20:09.972Z,2053.12
2019-02-17T13:21:47.325Z,1968.75
2019-02-17T13:22:47.539Z,1996.88
2019-02-17T13:24:20.891Z,1890.00
2019-02-17T13:25:21.012Z,1822.50
2019-02-17T13:26:54.785Z,1704.38
2019-02-17T13:27:54.993Z,1586.25
2019-02-17T13:29:28.987Z,1653.75
2019-02-17T13:30:29.104Z,1625.62
2019-02-17T13:32:03.744Z,1445.62
2019-02-17T13:33:03.865Z,1282.50
2019-02-17T13:34:38.676Z,1012.50
2019-02-17T13:35:38.741Z,945.00
2019-02-17T13:37:12.540Z,826.88
2019-02-17T13:38:12.771Z,753.75
2019-02-17T13:39:48.535Z,714.38
2019-02-17T13:40:48.631Z,703.12
2019-02-17T13:42:22.433Z,663.75
2019-02-17T13:43:22.659Z,652.50
2019-02-17T13:44:57.477Z,635.62
2019-02-17T13:45:57.683Z,669.38
2019-02-17T13:47:31.979Z,641.25
2019-02-17T13:48:31.875Z,658.12
2019-02-17T13:50:06.375Z,635.62
2019-02-17T13:51:06.608Z,658.12
2019-02-17T13:52:39.842Z,646.88
2019-02-17T13:53:39.953Z,641.25
2019-02-17T13:55:13.736Z,618.75
2019-02-17T13:56:13.970Z,601.88
2019-02-17T13:57:47.222Z,590.62
2019-02-17T13:58:47.431Z,585.00
2019-02-17T14:00:21.707Z,573.75
2019-02-17T14:01:21.973Z,556.88
2019-02-17T14:02:55.844Z,551.25
2019-02-17T14:03:55.934Z,545.62
